sensor_id;sensor_type;location;lat;lon;timestamp;P1;durP1;ratioP1;P2;durP2;ratioP2
52866;SDS011;38739;53.324;6.862;2023-09-07T00:00:12;6.10;;;4.00;;
52866;SDS011;38739;53.324;6.862;2023-09-07T00:02:39;4.65;;;3.80;;
52866;SDS011;38739;53.324;6.862;2023-09-07T00:05:08;7.47;;;4.10;;
52866;SDS011;38739;53.324;6.862;2023-09-07T00:07:34;6.50;;;3.70;;
52866;SDS011;38739;53.324;6.862;2023-09-07T00:10:00;5.80;;;4.07;;
52866;SDS011;38739;53.324;6.862;2023-09-07T00:12:26;5.43;;;4.03;;
52866;SDS011;38739;53.324;6.862;2023-09-07T00:14:52;9.95;;;4.30;;
52866;SDS011;38739;53.324;6.862;2023-09-07T00:17:19;6.82;;;4.43;;
52866;SDS011;38739;53.324;6.862;2023-09-07T00:19:45;4.55;;;4.07;;
52866;SDS011;38739;53.324;6.862;2023-09-07T00:22:14;5.78;;;3.88;;
52866;SDS011;38739;53.324;6.862;2023-09-07T00:24:40;5.05;;;3.90;;
52866;SDS011;38739;53.324;6.862;2023-09-07T00:27:05;6.07;;;3.92;;
52866;SDS011;38739;53.324;6.862;2023-09-07T00:29:34;4.88;;;4.13;;
52866;SDS011;38739;53.324;6.862;2023-09-07T00:32:00;5.45;;;4.20;;
52866;SDS011;38739;53.324;6.862;2023-09-07T00:34:26;7.05;;;4.45;;
52866;SDS011;38739;53.324;6.862;2023-09-07T00:36:51;7.45;;;4.10;;
52866;SDS011;38739;53.324;6.862;2023-09-07T00:39:17;6.15;;;4.18;;
52866;SDS011;38739;53.324;6.862;2023-09-07T00:41:43;6.20;;;4.10;;
52866;SDS011;38739;53.324;6.862;2023-09-07T00:44:08;4.95;;;4.07;;
52866;SDS011;38739;53.324;6.862;2023-09-07T00:46:34;4.68;;;4.18;;
52866;SDS011;38739;53.324;6.862;2023-09-07T00:49:01;5.13;;;4.53;;
52866;SDS011;38739;53.324;6.862;2023-09-07T00:51:29;7.65;;;4.40;;
52866;SDS011;38739;53.324;6.862;2023-09-07T00:53:55;9.30;;;4.85;;
52866;SDS011;38739;53.324;6.862;2023-09-07T00:56:21;8.20;;;4.72;;
52866;SDS011;38739;53.324;6.862;2023-09-07T00:58:47;6.95;;;4.50;;
52866;SDS011;38739;53.324;6.862;2023-09-07T01:01:14;6.35;;;5.07;;
52866;SDS011;38739;53.324;6.862;2023-09-07T01:03:39;6.28;;;5.50;;
52866;SDS011;38739;53.324;6.862;2023-09-07T01:08:44;10.38;;;5.20;;
52866;SDS011;38739;53.324;6.862;2023-09-07T01:11:16;8.48;;;4.93;;
52866;SDS011;38739;53.324;6.862;2023-09-07T01:13:45;6.10;;;4.95;;
52866;SDS011;38739;53.324;6.862;2023-09-07T01:16:11;5.85;;;5.00;;
52866;SDS011;38739;53.324;6.862;2023-09-07T01:18:41;5.57;;;4.45;;
52866;SDS011;38739;53.324;6.862;2023-09-07T01:21:07;6.13;;;5.00;;
52866;SDS011;38739;53.324;6.862;2023-09-07T01:23:36;7.57;;;4.55;;
52866;SDS011;38739;53.324;6.862;2023-09-07T01:26:06;6.05;;;4.50;;
52866;SDS011;38739;53.324;6.862;2023-09-07T01:28:34;9.98;;;4.82;;
52866;SDS011;38739;53.324;6.862;2023-09-07T01:31:00;11.13;;;4.43;;
52866;SDS011;38739;53.324;6.862;2023-09-07T01:33:29;7.28;;;4.82;;
52866;SDS011;38739;53.324;6.862;2023-09-07T01:35:55;6.05;;;4.57;;
52866;SDS011;38739;53.324;6.862;2023-09-07T01:38:20;6.85;;;5.15;;
52866;SDS011;38739;53.324;6.862;2023-09-07T01:40:46;7.30;;;4.70;;
52866;SDS011;38739;53.324;6.862;2023-09-07T01:43:12;9.68;;;5.30;;
52866;SDS011;38739;53.324;6.862;2023-09-07T01:45:38;6.40;;;4.78;;
52866;SDS011;38739;53.324;6.862;2023-09-07T01:48:07;6.13;;;4.90;;
52866;SDS011;38739;53.324;6.862;2023-09-07T01:50:35;7.05;;;5.07;;
52866;SDS011;38739;53.324;6.862;2023-09-07T01:53:01;8.38;;;4.70;;
52866;SDS011;38739;53.324;6.862;2023-09-07T01:55:28;8.07;;;5.32;;
52866;SDS011;38739;53.324;6.862;2023-09-07T01:57:54;6.47;;;4.80;;
52866;SDS011;38739;53.324;6.862;2023-09-07T02:00:20;7.25;;;5.13;;
52866;SDS011;38739;53.324;6.862;2023-09-07T02:02:45;7.97;;;5.15;;
52866;SDS011;38739;53.324;6.862;2023-09-07T02:05:11;5.40;;;4.90;;
52866;SDS011;38739;53.324;6.862;2023-09-07T02:07:37;6.18;;;5.00;;
52866;SDS011;38739;53.324;6.862;2023-09-07T02:10:03;5.43;;;4.85;;
52866;SDS011;38739;53.324;6.862;2023-09-07T02:12:29;6.65;;;5.50;;
52866;SDS011;38739;53.324;6.862;2023-09-07T02:14:55;7.00;;;5.30;;
52866;SDS011;38739;53.324;6.862;2023-09-07T02:17:21;6.88;;;5.20;;
52866;SDS011;38739;53.324;6.862;2023-09-07T02:19:46;6.47;;;5.43;;
52866;SDS011;38739;53.324;6.862;2023-09-07T02:22:12;8.18;;;5.75;;
52866;SDS011;38739;53.324;6.862;2023-09-07T02:24:38;7.65;;;5.82;;
52866;SDS011;38739;53.324;6.862;2023-09-07T02:27:04;6.40;;;5.60;;
52866;SDS011;38739;53.324;6.862;2023-09-07T02:29:29;8.65;;;6.13;;
52866;SDS011;38739;53.324;6.862;2023-09-07T02:31:55;8.50;;;5.35;;
52866;SDS011;38739;53.324;6.862;2023-09-07T02:34:22;12.18;;;6.20;;
52866;SDS011;38739;53.324;6.862;2023-09-07T02:36:48;6.80;;;6.10;;
52866;SDS011;38739;53.324;6.862;2023-09-07T02:39:14;7.88;;;5.72;;
52866;SDS011;38739;53.324;6.862;2023-09-07T02:41:40;6.43;;;5.85;;
52866;SDS011;38739;53.324;6.862;2023-09-07T02:44:05;7.35;;;5.88;;
52866;SDS011;38739;53.324;6.862;2023-09-07T02:46:31;7.43;;;5.75;;
52866;SDS011;38739;53.324;6.862;2023-09-07T02:48:57;9.25;;;5.88;;
52866;SDS011;38739;53.324;6.862;2023-09-07T02:51:23;7.35;;;6.28;;
52866;SDS011;38739;53.324;6.862;2023-09-07T02:53:49;9.32;;;6.20;;
52866;SDS011;38739;53.324;6.862;2023-09-07T02:56:15;8.32;;;6.15;;
52866;SDS011;38739;53.324;6.862;2023-09-07T02:58:41;7.65;;;5.90;;
52866;SDS011;38739;53.324;6.862;2023-09-07T03:01:07;8.23;;;6.65;;
52866;SDS011;38739;53.324;6.862;2023-09-07T03:03:34;7.22;;;6.25;;
52866;SDS011;38739;53.324;6.862;2023-09-07T03:06:07;7.75;;;6.43;;
52866;SDS011;38739;53.324;6.862;2023-09-07T03:08:37;8.98;;;6.50;;
52866;SDS011;38739;53.324;6.862;2023-09-07T03:11:07;7.57;;;6.40;;
52866;SDS011;38739;53.324;6.862;2023-09-07T03:13:33;7.28;;;6.55;;
52866;SDS011;38739;53.324;6.862;2023-09-07T03:16:00;8.02;;;6.88;;
52866;SDS011;38739;53.324;6.862;2023-09-07T03:18:28;7.88;;;7.07;;
52866;SDS011;38739;53.324;6.862;2023-09-07T03:20:55;10.70;;;7.18;;
52866;SDS011;38739;53.324;6.862;2023-09-07T03:23:23;8.20;;;6.47;;
52866;SDS011;38739;53.324;6.862;2023-09-07T03:25:48;8.88;;;6.82;;
52866;SDS011;38739;53.324;6.862;2023-09-07T03:28:14;8.25;;;6.50;;
52866;SDS011;38739;53.324;6.862;2023-09-07T03:30:40;7.97;;;6.50;;
52866;SDS011;38739;53.324;6.862;2023-09-07T03:33:05;8.20;;;6.93;;
52866;SDS011;38739;53.324;6.862;2023-09-07T03:35:31;7.68;;;6.82;;
52866;SDS011;38739;53.324;6.862;2023-09-07T03:37:58;10.05;;;7.55;;
52866;SDS011;38739;53.324;6.862;2023-09-07T03:40:23;7.03;;;6.32;;
52866;SDS011;38739;53.324;6.862;2023-09-07T03:42:49;7.68;;;6.20;;
52866;SDS011;38739;53.324;6.862;2023-09-07T03:45:15;8.68;;;7.28;;
52866;SDS011;38739;53.324;6.862;2023-09-07T03:47:41;9.00;;;7.18;;
52866;SDS011;38739;53.324;6.862;2023-09-07T03:50:07;7.35;;;6.57;;
52866;SDS011;38739;53.324;6.862;2023-09-07T03:52:33;9.57;;;7.20;;
52866;SDS011;38739;53.324;6.862;2023-09-07T03:54:59;8.15;;;6.07;;
52866;SDS011;38739;53.324;6.862;2023-09-07T03:57:25;7.30;;;6.60;;
52866;SDS011;38739;53.324;6.862;2023-09-07T03:59:51;9.38;;;6.70;;
52866;SDS011;38739;53.324;6.862;2023-09-07T04:02:17;8.98;;;6.57;;
52866;SDS011;38739;53.324;6.862;2023-09-07T04:04:43;9.00;;;6.38;;
52866;SDS011;38739;53.324;6.862;2023-09-07T04:07:20;7.75;;;6.53;;
52866;SDS011;38739;53.324;6.862;2023-09-07T04:09:46;6.40;;;5.80;;
52866;SDS011;38739;53.324;6.862;2023-09-07T04:12:12;10.93;;;6.85;;
52866;SDS011;38739;53.324;6.862;2023-09-07T04:14:37;8.15;;;6.50;;
52866;SDS011;38739;53.324;6.862;2023-09-07T04:17:04;16.50;;;10.63;;
52866;SDS011;38739;53.324;6.862;2023-09-07T04:19:30;9.60;;;6.78;;
52866;SDS011;38739;53.324;6.862;2023-09-07T04:21:56;7.90;;;6.82;;
52866;SDS011;38739;53.324;6.862;2023-09-07T04:24:23;7.50;;;6.70;;
52866;SDS011;38739;53.324;6.862;2023-09-07T04:26:49;14.40;;;6.63;;
52866;SDS011;38739;53.324;6.862;2023-09-07T04:29:15;13.05;;;8.23;;
52866;SDS011;38739;53.324;6.862;2023-09-07T04:31:41;7.22;;;6.40;;
52866;SDS011;38739;53.324;6.862;2023-09-07T04:34:07;16.73;;;12.88;;
52866;SDS011;38739;53.324;6.862;2023-09-07T04:36:33;9.48;;;6.85;;
52866;SDS011;38739;53.324;6.862;2023-09-07T04:38:58;9.63;;;7.05;;
52866;SDS011;38739;53.324;6.862;2023-09-07T04:41:24;9.35;;;7.28;;
52866;SDS011;38739;53.324;6.862;2023-09-07T04:43:50;10.77;;;8.10;;
52866;SDS011;38739;53.324;6.862;2023-09-07T04:46:16;12.77;;;8.77;;
52866;SDS011;38739;53.324;6.862;2023-09-07T04:48:42;13.63;;;9.32;;
52866;SDS011;38739;53.324;6.862;2023-09-07T04:51:08;16.20;;;10.25;;
52866;SDS011;38739;53.324;6.862;2023-09-07T04:53:36;16.02;;;10.52;;
52866;SDS011;38739;53.324;6.862;2023-09-07T04:56:03;12.60;;;10.80;;
52866;SDS011;38739;53.324;6.862;2023-09-07T04:58:30;15.80;;;11.45;;
52866;SDS011;38739;53.324;6.862;2023-09-07T05:01:03;16.48;;;11.93;;
52866;SDS011;38739;53.324;6.862;2023-09-07T05:03:30;20.55;;;14.00;;
52866;SDS011;38739;53.324;6.862;2023-09-07T05:05:56;20.23;;;14.82;;
52866;SDS011;38739;53.324;6.862;2023-09-07T05:08:22;24.42;;;20.27;;
52866;SDS011;38739;53.324;6.862;2023-09-07T05:10:54;24.30;;;20.02;;
52866;SDS011;38739;53.324;6.862;2023-09-07T05:13:20;25.20;;;21.02;;
52866;SDS011;38739;53.324;6.862;2023-09-07T05:15:50;49.30;;;37.70;;
52866;SDS011;38739;53.324;6.862;2023-09-07T05:18:16;37.72;;;28.15;;
52866;SDS011;38739;53.324;6.862;2023-09-07T05:20:43;44.38;;;36.42;;
52866;SDS011;38739;53.324;6.862;2023-09-07T05:23:18;45.45;;;37.58;;
52866;SDS011;38739;53.324;6.862;2023-09-07T05:25:46;49.40;;;41.83;;
52866;SDS011;38739;53.324;6.862;2023-09-07T05:28:21;55.75;;;44.70;;
52866;SDS011;38739;53.324;6.862;2023-09-07T05:30:47;55.00;;;46.78;;
52866;SDS011;38739;53.324;6.862;2023-09-07T05:33:14;58.97;;;46.28;;
52866;SDS011;38739;53.324;6.862;2023-09-07T05:35:41;63.70;;;50.10;;
52866;SDS011;38739;53.324;6.862;2023-09-07T05:38:07;62.15;;;46.60;;
52866;SDS011;38739;53.324;6.862;2023-09-07T05:40:34;65.40;;;46.67;;
52866;SDS011;38739;53.324;6.862;2023-09-07T05:43:04;55.63;;;42.63;;
52866;SDS011;38739;53.324;6.862;2023-09-07T05:45:30;48.00;;;38.53;;
52866;SDS011;38739;53.324;6.862;2023-09-07T05:47:59;40.20;;;29.98;;
52866;SDS011;38739;53.324;6.862;2023-09-07T05:50:25;34.60;;;26.52;;
52866;SDS011;38739;53.324;6.862;2023-09-07T05:52:51;28.00;;;20.85;;
52866;SDS011;38739;53.324;6.862;2023-09-07T05:55:16;23.73;;;16.60;;
52866;SDS011;38739;53.324;6.862;2023-09-07T05:57:42;18.55;;;14.13;;
52866;SDS011;38739;53.324;6.862;2023-09-07T06:00:08;15.25;;;12.63;;
52866;SDS011;38739;53.324;6.862;2023-09-07T06:02:34;15.57;;;12.40;;
52866;SDS011;38739;53.324;6.862;2023-09-07T06:05:01;14.98;;;11.02;;
52866;SDS011;38739;53.324;6.862;2023-09-07T06:07:27;12.93;;;11.27;;
52866;SDS011;38739;53.324;6.862;2023-09-07T06:09:52;17.90;;;11.07;;
52866;SDS011;38739;53.324;6.862;2023-09-07T06:12:18;14.48;;;10.38;;
52866;SDS011;38739;53.324;6.862;2023-09-07T06:14:44;18.58;;;10.88;;
52866;SDS011;38739;53.324;6.862;2023-09-07T06:17:11;14.73;;;10.48;;
52866;SDS011;38739;53.324;6.862;2023-09-07T06:19:37;15.38;;;10.77;;
52866;SDS011;38739;53.324;6.862;2023-09-07T06:22:03;19.65;;;11.15;;
52866;SDS011;38739;53.324;6.862;2023-09-07T06:24:29;15.70;;;11.40;;
52866;SDS011;38739;53.324;6.862;2023-09-07T06:26:55;14.50;;;10.25;;
52866;SDS011;38739;53.324;6.862;2023-09-07T06:29:20;15.98;;;10.18;;
52866;SDS011;38739;53.324;6.862;2023-09-07T06:31:46;15.73;;;9.68;;
52866;SDS011;38739;53.324;6.862;2023-09-07T06:34:15;13.80;;;9.07;;
52866;SDS011;38739;53.324;6.862;2023-09-07T06:36:41;11.32;;;7.68;;
52866;SDS011;38739;53.324;6.862;2023-09-07T06:39:06;15.35;;;12.18;;
52866;SDS011;38739;53.324;6.862;2023-09-07T06:41:32;17.33;;;12.70;;
52866;SDS011;38739;53.324;6.862;2023-09-07T06:43:58;25.10;;;19.77;;
52866;SDS011;38739;53.324;6.862;2023-09-07T06:46:24;26.77;;;17.75;;
52866;SDS011;38739;53.324;6.862;2023-09-07T06:48:49;22.30;;;16.85;;
52866;SDS011;38739;53.324;6.862;2023-09-07T06:51:15;17.77;;;12.25;;
52866;SDS011;38739;53.324;6.862;2023-09-07T06:53:41;15.40;;;11.95;;
52866;SDS011;38739;53.324;6.862;2023-09-07T06:56:06;13.88;;;10.43;;
52866;SDS011;38739;53.324;6.862;2023-09-07T06:58:32;12.77;;;8.48;;
52866;SDS011;38739;53.324;6.862;2023-09-07T07:00:59;9.95;;;8.10;;
52866;SDS011;38739;53.324;6.862;2023-09-07T07:03:29;12.82;;;8.82;;
52866;SDS011;38739;53.324;6.862;2023-09-07T07:05:56;18.85;;;12.00;;
52866;SDS011;38739;53.324;6.862;2023-09-07T07:08:22;17.75;;;10.95;;
52866;SDS011;38739;53.324;6.862;2023-09-07T07:10:49;29.42;;;20.40;;
52866;SDS011;38739;53.324;6.862;2023-09-07T07:13:14;23.67;;;16.73;;
52866;SDS011;38739;53.324;6.862;2023-09-07T07:15:40;25.08;;;16.45;;
52866;SDS011;38739;53.324;6.862;2023-09-07T07:18:07;37.70;;;23.05;;
52866;SDS011;38739;53.324;6.862;2023-09-07T07:20:40;43.00;;;25.73;;
52866;SDS011;38739;53.324;6.862;2023-09-07T07:23:07;29.63;;;19.90;;
52866;SDS011;38739;53.324;6.862;2023-09-07T07:25:33;26.15;;;17.77;;
52866;SDS011;38739;53.324;6.862;2023-09-07T07:28:03;23.60;;;14.75;;
52866;SDS011;38739;53.324;6.862;2023-09-07T07:30:35;15.27;;;11.27;;
52866;SDS011;38739;53.324;6.862;2023-09-07T07:33:02;12.27;;;9.27;;
52866;SDS011;38739;53.324;6.862;2023-09-07T07:35:33;15.02;;;8.25;;
52866;SDS011;38739;53.324;6.862;2023-09-07T07:38:05;10.32;;;7.03;;
52866;SDS011;38739;53.324;6.862;2023-09-07T07:40:32;12.23;;;7.03;;
52866;SDS011;38739;53.324;6.862;2023-09-07T07:42:58;8.70;;;6.63;;
52866;SDS011;38739;53.324;6.862;2023-09-07T07:45:24;7.70;;;6.20;;
52866;SDS011;38739;53.324;6.862;2023-09-07T07:47:50;10.98;;;6.20;;
52866;SDS011;38739;53.324;6.862;2023-09-07T07:50:18;10.88;;;5.95;;
52866;SDS011;38739;53.324;6.862;2023-09-07T07:52:44;8.40;;;5.50;;
52866;SDS011;38739;53.324;6.862;2023-09-07T07:55:10;5.43;;;4.82;;
52866;SDS011;38739;53.324;6.862;2023-09-07T07:57:37;9.63;;;5.20;;
52866;SDS011;38739;53.324;6.862;2023-09-07T08:00:03;11.55;;;5.63;;
52866;SDS011;38739;53.324;6.862;2023-09-07T08:02:30;9.27;;;5.88;;
52866;SDS011;38739;53.324;6.862;2023-09-07T08:04:57;5.70;;;5.10;;
52866;SDS011;38739;53.324;6.862;2023-09-07T08:07:23;7.68;;;5.38;;
52866;SDS011;38739;53.324;6.862;2023-09-07T08:09:50;9.43;;;5.28;;
52866;SDS011;38739;53.324;6.862;2023-09-07T08:12:16;9.80;;;5.70;;
52866;SDS011;38739;53.324;6.862;2023-09-07T08:14:42;9.02;;;5.35;;
52866;SDS011;38739;53.324;6.862;2023-09-07T08:17:08;8.93;;;5.70;;
52866;SDS011;38739;53.324;6.862;2023-09-07T08:19:34;8.20;;;5.03;;
52866;SDS011;38739;53.324;6.862;2023-09-07T08:21:59;7.68;;;4.90;;
52866;SDS011;38739;53.324;6.862;2023-09-07T08:24:28;10.63;;;5.20;;
52866;SDS011;38739;53.324;6.862;2023-09-07T08:26:54;8.68;;;5.13;;
52866;SDS011;38739;53.324;6.862;2023-09-07T08:29:22;7.78;;;4.90;;
52866;SDS011;38739;53.324;6.862;2023-09-07T08:31:52;6.13;;;5.25;;
52866;SDS011;38739;53.324;6.862;2023-09-07T08:34:19;7.18;;;4.63;;
52866;SDS011;38739;53.324;6.862;2023-09-07T08:36:47;8.20;;;5.00;;
52866;SDS011;38739;53.324;6.862;2023-09-07T08:39:14;7.15;;;4.78;;
52866;SDS011;38739;53.324;6.862;2023-09-07T08:41:41;7.63;;;4.70;;
52866;SDS011;38739;53.324;6.862;2023-09-07T08:44:10;6.82;;;4.68;;
52866;SDS011;38739;53.324;6.862;2023-09-07T08:46:37;6.25;;;4.72;;
52866;SDS011;38739;53.324;6.862;2023-09-07T08:49:03;6.05;;;4.63;;
52866;SDS011;38739;53.324;6.862;2023-09-07T08:51:30;7.05;;;4.70;;
52866;SDS011;38739;53.324;6.862;2023-09-07T08:53:59;6.95;;;4.82;;
52866;SDS011;38739;53.324;6.862;2023-09-07T08:56:26;8.10;;;4.60;;
52866;SDS011;38739;53.324;6.862;2023-09-07T08:58:52;6.93;;;4.75;;
52866;SDS011;38739;53.324;6.862;2023-09-07T09:01:18;6.43;;;4.50;;
52866;SDS011;38739;53.324;6.862;2023-09-07T09:03:45;8.85;;;5.72;;
52866;SDS011;38739;53.324;6.862;2023-09-07T09:06:11;6.97;;;4.75;;
52866;SDS011;38739;53.324;6.862;2023-09-07T09:08:48;6.40;;;5.10;;
52866;SDS011;38739;53.324;6.862;2023-09-07T09:11:16;11.55;;;5.30;;
52866;SDS011;38739;53.324;6.862;2023-09-07T09:13:42;6.63;;;4.43;;
52866;SDS011;38739;53.324;6.862;2023-09-07T09:16:09;10.13;;;5.35;;
52866;SDS011;38739;53.324;6.862;2023-09-07T09:18:35;7.78;;;4.90;;
52866;SDS011;38739;53.324;6.862;2023-09-07T09:21:01;10.65;;;5.40;;
52866;SDS011;38739;53.324;6.862;2023-09-07T09:23:34;11.25;;;5.30;;
52866;SDS011;38739;53.324;6.862;2023-09-07T09:26:01;16.27;;;5.35;;
52866;SDS011;38739;53.324;6.862;2023-09-07T09:28:33;7.47;;;5.25;;
52866;SDS011;38739;53.324;6.862;2023-09-07T09:31:00;9.63;;;4.90;;
52866;SDS011;38739;53.324;6.862;2023-09-07T09:33:27;13.30;;;5.95;;
52866;SDS011;38739;53.324;6.862;2023-09-07T09:35:56;9.48;;;5.75;;
52866;SDS011;38739;53.324;6.862;2023-09-07T09:38:23;7.97;;;5.22;;
52866;SDS011;38739;53.324;6.862;2023-09-07T09:40:50;9.20;;;5.57;;
52866;SDS011;38739;53.324;6.862;2023-09-07T09:43:16;8.88;;;5.82;;
52866;SDS011;38739;53.324;6.862;2023-09-07T09:45:48;8.63;;;4.90;;
52866;SDS011;38739;53.324;6.862;2023-09-07T09:48:18;9.05;;;4.55;;
52866;SDS011;38739;53.324;6.862;2023-09-07T09:50:49;9.02;;;5.32;;
52866;SDS011;38739;53.324;6.862;2023-09-07T09:53:16;9.43;;;5.05;;
52866;SDS011;38739;53.324;6.862;2023-09-07T09:55:52;8.38;;;5.90;;
52866;SDS011;38739;53.324;6.862;2023-09-07T09:58:19;7.38;;;4.47;;
52866;SDS011;38739;53.324;6.862;2023-09-07T10:00:45;7.10;;;4.80;;
52866;SDS011;38739;53.324;6.862;2023-09-07T10:03:18;8.98;;;4.85;;
52866;SDS011;38739;53.324;6.862;2023-09-07T10:05:52;7.05;;;5.05;;
52866;SDS011;38739;53.324;6.862;2023-09-07T10:08:18;6.18;;;4.28;;
52866;SDS011;38739;53.324;6.862;2023-09-07T10:10:48;6.97;;;4.60;;
52866;SDS011;38739;53.324;6.862;2023-09-07T10:13:28;8.90;;;4.35;;
52866;SDS011;38739;53.324;6.862;2023-09-07T10:16:02;8.93;;;4.55;;
52866;SDS011;38739;53.324;6.862;2023-09-07T10:18:36;5.97;;;4.85;;
52866;SDS011;38739;53.324;6.862;2023-09-07T10:21:03;7.40;;;4.35;;
52866;SDS011;38739;53.324;6.862;2023-09-07T10:23:39;6.78;;;4.63;;
52866;SDS011;38739;53.324;6.862;2023-09-07T10:26:13;7.82;;;4.63;;
52866;SDS011;38739;53.324;6.862;2023-09-07T10:28:40;7.22;;;4.32;;
52866;SDS011;38739;53.324;6.862;2023-09-07T10:33:40;9.10;;;4.40;;
52866;SDS011;38739;53.324;6.862;2023-09-07T10:36:06;8.63;;;4.30;;
52866;SDS011;38739;53.324;6.862;2023-09-07T10:38:32;8.50;;;4.30;;
52866;SDS011;38739;53.324;6.862;2023-09-07T10:41:02;8.68;;;4.05;;
52866;SDS011;38739;53.324;6.862;2023-09-07T10:43:30;5.38;;;4.07;;
52866;SDS011;38739;53.324;6.862;2023-09-07T10:45:57;6.43;;;3.70;;
52866;SDS011;38739;53.324;6.862;2023-09-07T10:48:25;4.88;;;3.88;;
52866;SDS011;38739;53.324;6.862;2023-09-07T10:50:53;5.13;;;3.90;;
52866;SDS011;38739;53.324;6.862;2023-09-07T10:53:29;7.32;;;4.10;;
52866;SDS011;38739;53.324;6.862;2023-09-07T10:55:57;7.40;;;3.80;;
52866;SDS011;38739;53.324;6.862;2023-09-07T10:58:25;5.43;;;3.83;;
52866;SDS011;38739;53.324;6.862;2023-09-07T11:00:52;6.53;;;4.30;;
52866;SDS011;38739;53.324;6.862;2023-09-07T11:03:18;8.02;;;4.40;;
52866;SDS011;38739;53.324;6.862;2023-09-07T11:05:44;7.50;;;4.00;;
52866;SDS011;38739;53.324;6.862;2023-09-07T11:08:10;8.15;;;4.32;;
52866;SDS011;38739;53.324;6.862;2023-09-07T11:10:36;6.43;;;4.15;;
52866;SDS011;38739;53.324;6.862;2023-09-07T11:13:03;7.22;;;4.20;;
52866;SDS011;38739;53.324;6.862;2023-09-07T11:15:29;6.43;;;4.38;;
52866;SDS011;38739;53.324;6.862;2023-09-07T11:17:57;7.68;;;4.20;;
52866;SDS011;38739;53.324;6.862;2023-09-07T11:20:23;6.25;;;4.10;;
52866;SDS011;38739;53.324;6.862;2023-09-07T11:22:49;6.50;;;3.97;;
52866;SDS011;38739;53.324;6.862;2023-09-07T11:25:15;5.20;;;4.10;;
52866;SDS011;38739;53.324;6.862;2023-09-07T11:27:41;6.28;;;3.72;;
52866;SDS011;38739;53.324;6.862;2023-09-07T11:30:10;4.53;;;4.00;;
52866;SDS011;38739;53.324;6.862;2023-09-07T11:32:36;7.90;;;4.25;;
52866;SDS011;38739;53.324;6.862;2023-09-07T11:35:03;4.80;;;3.80;;
52866;SDS011;38739;53.324;6.862;2023-09-07T11:37:32;7.22;;;4.00;;
52866;SDS011;38739;53.324;6.862;2023-09-07T11:39:58;10.82;;;4.30;;
52866;SDS011;38739;53.324;6.862;2023-09-07T11:42:24;6.70;;;3.95;;
52866;SDS011;38739;53.324;6.862;2023-09-07T11:44:49;7.65;;;3.30;;
52866;SDS011;38739;53.324;6.862;2023-09-07T11:47:15;8.35;;;3.97;;
52866;SDS011;38739;53.324;6.862;2023-09-07T11:49:41;5.03;;;3.80;;
52866;SDS011;38739;53.324;6.862;2023-09-07T11:52:07;7.95;;;4.00;;
52866;SDS011;38739;53.324;6.862;2023-09-07T11:54:32;7.55;;;3.80;;
52866;SDS011;38739;53.324;6.862;2023-09-07T11:56:58;8.98;;;3.85;;
52866;SDS011;38739;53.324;6.862;2023-09-07T11:59:24;6.40;;;3.92;;
52866;SDS011;38739;53.324;6.862;2023-09-07T12:01:49;7.80;;;4.10;;
52866;SDS011;38739;53.324;6.862;2023-09-07T12:04:15;5.15;;;3.55;;
52866;SDS011;38739;53.324;6.862;2023-09-07T12:06:41;5.45;;;3.70;;
52866;SDS011;38739;53.324;6.862;2023-09-07T12:09:07;6.43;;;3.90;;
52866;SDS011;38739;53.324;6.862;2023-09-07T12:11:34;8.05;;;3.72;;
52866;SDS011;38739;53.324;6.862;2023-09-07T12:14:00;6.07;;;3.30;;
52866;SDS011;38739;53.324;6.862;2023-09-07T12:16:27;5.32;;;3.70;;
52866;SDS011;38739;53.324;6.862;2023-09-07T12:18:53;6.75;;;3.95;;
52866;SDS011;38739;53.324;6.862;2023-09-07T12:21:19;4.50;;;3.40;;
52866;SDS011;38739;53.324;6.862;2023-09-07T12:23:45;8.27;;;3.80;;
52866;SDS011;38739;53.324;6.862;2023-09-07T12:26:14;5.25;;;3.55;;
52866;SDS011;38739;53.324;6.862;2023-09-07T12:28:41;6.20;;;3.30;;
52866;SDS011;38739;53.324;6.862;2023-09-07T12:31:07;7.53;;;3.28;;
52866;SDS011;38739;53.324;6.862;2023-09-07T12:33:33;5.88;;;3.70;;
52866;SDS011;38739;53.324;6.862;2023-09-07T12:35:59;4.13;;;3.25;;
52866;SDS011;38739;53.324;6.862;2023-09-07T12:38:25;4.78;;;3.45;;
52866;SDS011;38739;53.324;6.862;2023-09-07T12:40:52;5.18;;;3.67;;
52866;SDS011;38739;53.324;6.862;2023-09-07T12:43:18;8.23;;;3.72;;
52866;SDS011;38739;53.324;6.862;2023-09-07T12:45:44;7.88;;;3.63;;
52866;SDS011;38739;53.324;6.862;2023-09-07T12:48:11;5.05;;;3.72;;
52866;SDS011;38739;53.324;6.862;2023-09-07T12:50:36;6.55;;;3.63;;
52866;SDS011;38739;53.324;6.862;2023-09-07T12:53:02;5.57;;;3.53;;
52866;SDS011;38739;53.324;6.862;2023-09-07T12:55:28;6.05;;;3.58;;
52866;SDS011;38739;53.324;6.862;2023-09-07T12:57:55;6.05;;;3.63;;
52866;SDS011;38739;53.324;6.862;2023-09-07T13:00:21;6.32;;;3.55;;
52866;SDS011;38739;53.324;6.862;2023-09-07T13:02:46;4.93;;;3.53;;
52866;SDS011;38739;53.324;6.862;2023-09-07T13:05:12;4.68;;;3.40;;
52866;SDS011;38739;53.324;6.862;2023-09-07T13:07:38;4.50;;;3.40;;
52866;SDS011;38739;53.324;6.862;2023-09-07T13:10:05;6.30;;;3.78;;
52866;SDS011;38739;53.324;6.862;2023-09-07T13:12:31;7.85;;;3.33;;
52866;SDS011;38739;53.324;6.862;2023-09-07T13:15:00;6.55;;;3.58;;
52866;SDS011;38739;53.324;6.862;2023-09-07T13:17:25;6.28;;;3.55;;
52866;SDS011;38739;53.324;6.862;2023-09-07T13:19:51;11.48;;;3.50;;
52866;SDS011;38739;53.324;6.862;2023-09-07T13:22:17;6.38;;;3.75;;
52866;SDS011;38739;53.324;6.862;2023-09-07T13:24:43;4.63;;;3.30;;
52866;SDS011;38739;53.324;6.862;2023-09-07T13:27:08;8.50;;;3.33;;
52866;SDS011;38739;53.324;6.862;2023-09-07T13:29:35;4.20;;;3.28;;
52866;SDS011;38739;53.324;6.862;2023-09-07T13:32:01;6.68;;;3.22;;
52866;SDS011;38739;53.324;6.862;2023-09-07T13:34:27;3.78;;;3.03;;
52866;SDS011;38739;53.324;6.862;2023-09-07T13:36:53;7.68;;;3.65;;
52866;SDS011;38739;53.324;6.862;2023-09-07T13:39:20;5.97;;;3.28;;
52866;SDS011;38739;53.324;6.862;2023-09-07T13:41:46;7.68;;;3.63;;
52866;SDS011;38739;53.324;6.862;2023-09-07T13:44:13;4.75;;;3.40;;
52866;SDS011;38739;53.324;6.862;2023-09-07T13:46:39;4.85;;;3.67;;
52866;SDS011;38739;53.324;6.862;2023-09-07T13:49:05;5.13;;;3.08;;
52866;SDS011;38739;53.324;6.862;2023-09-07T13:51:31;5.70;;;3.13;;
52866;SDS011;38739;53.324;6.862;2023-09-07T13:54:03;7.05;;;3.67;;
52866;SDS011;38739;53.324;6.862;2023-09-07T13:56:30;6.38;;;3.83;;
52866;SDS011;38739;53.324;6.862;2023-09-07T13:58:56;5.47;;;3.33;;
52866;SDS011;38739;53.324;6.862;2023-09-07T14:01:22;11.15;;;3.67;;
52866;SDS011;38739;53.324;6.862;2023-09-07T14:03:49;4.45;;;3.78;;
52866;SDS011;38739;53.324;6.862;2023-09-07T14:06:15;5.82;;;3.60;;
52866;SDS011;38739;53.324;6.862;2023-09-07T14:08:42;5.45;;;3.80;;
52866;SDS011;38739;53.324;6.862;2023-09-07T14:11:09;5.35;;;3.60;;
52866;SDS011;38739;53.324;6.862;2023-09-07T14:13:35;6.85;;;4.28;;
52866;SDS011;38739;53.324;6.862;2023-09-07T14:16:01;4.80;;;3.40;;
52866;SDS011;38739;53.324;6.862;2023-09-07T14:18:27;5.68;;;4.00;;
52866;SDS011;38739;53.324;6.862;2023-09-07T14:20:53;6.45;;;3.63;;
52866;SDS011;38739;53.324;6.862;2023-09-07T14:23:22;5.60;;;3.47;;
52866;SDS011;38739;53.324;6.862;2023-09-07T14:25:50;5.38;;;4.15;;
52866;SDS011;38739;53.324;6.862;2023-09-07T14:28:16;3.80;;;3.50;;
52866;SDS011;38739;53.324;6.862;2023-09-07T14:30:42;8.00;;;3.40;;
52866;SDS011;38739;53.324;6.862;2023-09-07T14:33:08;6.47;;;3.80;;
52866;SDS011;38739;53.324;6.862;2023-09-07T14:35:33;5.00;;;3.75;;
52866;SDS011;38739;53.324;6.862;2023-09-07T14:38:00;5.03;;;3.70;;
52866;SDS011;38739;53.324;6.862;2023-09-07T14:40:26;6.40;;;3.85;;
52866;SDS011;38739;53.324;6.862;2023-09-07T14:42:51;7.70;;;3.70;;
52866;SDS011;38739;53.324;6.862;2023-09-07T14:45:18;8.15;;;3.70;;